Time;durP1;ratioP1;P1;durP2;ratioP2;P2;SDS_P1;SDS_P2;PMS_P1;PMS_P2;Temp;Humidity;BMP_temperature;BMP_pressure;BME280_temperature;BME280_humidity;BME280_pressure;Samples;Min_cycle;Max_cycle;Signal;HPM_P1;HPM_P2
2022/07/25 00:00:07;;;;;;;3.45;2.50;;;;;;;18.86;79.07;100379.91;10264555;29;20034;-81
2022/07/25 00:05:10;;;;;;;4.47;2.83;;;;;;;18.82;79.11;100378.97;10273487;29;20043;-83
2022/07/25 00:10:12;;;;;;;3.05;2.60;;;;;;;18.74;79.43;100366.78;10272448;29;20047;-78
2022/07/25 00:15:14;;;;;;;3.42;2.40;;;;;;;18.78;79.42;100364.16;10272798;29;20115;-78
2022/07/25 00:20:17;;;;;;;3.00;2.40;;;;;;;18.76;79.17;100360.91;10273760;29;20086;-78
2022/07/25 00:25:19;;;;;;;3.53;2.65;;;;;;;18.83;79.26;100359.19;10281006;29;20532;-78
2022/07/25 00:30:21;;;;;;;3.85;2.33;;;;;;;18.91;78.47;100354.66;10262628;29;20043;-78
2022/07/25 00:35:24;;;;;;;3.72;2.58;;;;;;;18.79;78.81;100355.47;10282410;29;20043;-78
2022/07/25 00:40:27;;;;;;;2.95;2.35;;;;;;;18.77;79.21;100340.28;10252369;29;20035;-78
2022/07/25 14:14:11;;;;;;;3.97;2.47;;;;;;;22.53;67.95;100503.00;10576484;27;2286358;-77
2022/07/25 14:19:14;;;;;;;3.42;2.72;;;;;;;22.56;67.51;100505.06;10647740;27;20047;-77
2022/07/25 14:24:17;;;;;;;3.10;2.58;;;;;;;22.74;67.75;100494.31;10631298;27;20054;-77
2022/07/25 14:29:23;;;;;;;4.00;2.87;;;;;;;22.88;65.69;100500.22;10610178;28;20580;-77
2022/07/25 14:34:25;;;;;;;2.75;2.42;;;;;;;22.97;65.54;100489.63;10624901;28;20039;-78
2022/07/25 14:39:28;;;;;;;4.00;2.90;;;;;;;23.04;64.90;100492.56;10629294;28;20032;-76
2022/07/25 14:44:31;;;;;;;2.80;2.50;;;;;;;22.98;64.51;100487.63;10596702;28;20050;-76
2022/07/25 14:49:33;;;;;;;4.50;2.80;;;;;;;22.95;64.09;100475.19;10633951;28;20135;-77
2022/07/25 14:54:36;;;;;;;3.55;2.97;;;;;;;22.82;63.90;100473.72;10639852;28;20547;-76
2022/07/25 14:59:39;;;;;;;4.22;3.00;;;;;;;22.77;63.17;100465.59;10603225;28;20046;-76
2022/07/25 15:04:41;;;;;;;3.38;2.30;;;;;;;22.80;63.27;100467.66;10615375;28;20062;-76
2022/07/25 15:09:43;;;;;;;3.10;2.45;;;;;;;22.86;63.59;100480.19;10550577;28;20051;-74
2022/07/25 15:14:46;;;;;;;2.40;2.10;;;;;;;22.77;63.55;100477.59;10586376;28;20042;-74
2022/07/25 15:19:49;;;;;;;2.80;2.40;;;;;;;22.79;63.06;100480.03;10598954;28;20036;-74
2022/07/25 15:24:52;;;;;;;4.95;2.75;;;;;;;22.76;63.50;100483.56;10614979;28;20495;-74
2022/07/25 15:29:54;;;;;;;4.28;2.85;;;;;;;22.73;62.80;100490.66;10582753;28;20534;-75
2022/07/25 15:34:56;;;;;;;3.25;2.67;;;;;;;22.72;63.09;100497.44;10580234;28;20489;-75
2022/07/25 15:39:59;;;;;;;3.08;2.30;;;;;;;22.73;63.31;100492.66;10579288;28;20067;-75
2022/07/25 15:45:01;;;;;;;2.45;2.25;;;;;;;22.55;64.46;100483.88;10597229;28;20073;-79
2022/07/25 15:50:03;;;;;;;3.13;2.50;;;;;;;22.46;64.62;100503.66;10607439;28;20046;-79
2022/07/25 15:55:07;;;;;;;2.30;2.05;;;;;;;22.37;64.92;100505.03;10598650;28;20100;-79
2022/07/25 16:00:09;;;;;;;4.95;2.83;;;;;;;22.32;64.89;100514.53;10595392;28;20051;-79
2022/07/25 16:05:12;;;;;;;3.47;2.58;;;;;;;22.31;65.34;100512.09;10585997;28;20047;-76
2022/07/25 16:10:15;;;;;;;3.15;2.47;;;;;;;22.33;65.71;100518.13;10602172;28;20053;-76
2022/07/25 16:15:18;;;;;;;2.03;1.88;;;;;;;22.26;65.34;100510.41;10587937;28;20051;-77
2022/07/25 16:20:21;;;;;;;3.55;1.98;;;;;;;22.24;65.00;100510.75;10577157;28;20051;-77
2022/07/25 16:25:24;;;;;;;2.88;2.10;;;;;;;22.15;65.72;100510.13;10598297;28;20447;-76
2022/07/25 16:30:27;;;;;;;2.40;2.00;;;;;;;22.10;65.39;100504.81;10587533;28;20036;-75
2022/07/25 16:35:31;;;;;;;3.78;2.10;;;;;;;22.07;64.91;100510.34;10578606;28;20044;-75
2022/07/25 16:40:34;;;;;;;2.33;1.80;;;;;;;22.07;65.21;100505.56;10591691;28;21257;-75
2022/07/25 16:45:37;;;;;;;2.38;2.03;;;;;;;22.01;64.83;100518.13;10567551;28;20040;-76
2022/07/25 16:50:40;;;;;;;2.78;2.10;;;;;;;21.98;64.74;100514.06;10569534;28;20048;-75
2022/07/25 16:55:43;;;;;;;3.75;2.20;;;;;;;21.86;65.14;100518.94;10598415;28;20044;-75
2022/07/25 17:00:45;;;;;;;5.45;2.20;;;;;;;21.74;64.85;100514.25;10585744;28;20505;-75
2022/07/25 17:05:50;;;;;;;5.03;2.38;;;;;;;21.68;64.73;100510.91;10600025;28;20044;-75
2022/07/25 17:10:54;;;;;;;3.65;2.90;;;;;;;21.62;64.65;100511.53;10603307;28;20052;-74
2022/07/25 17:15:56;;;;;;;2.47;2.28;;;;;;;21.57;65.42;100507.03;10600043;28;20528;-75
2022/07/25 17:20:58;;;;;;;3.75;2.15;;;;;;;21.55;65.71;100500.19;10609197;28;20485;-75
2022/07/25 17:26:04;;;;;;;2.42;1.85;;;;;;;21.52;65.52;100506.47;10590998;28;20054;-75
2022/07/25 17:31:06;;;;;;;1.80;1.60;;;;;;;21.48;65.98;100516.75;10583619;28;20043;-76
2022/07/25 17:36:19;;;;;;;2.60;2.08;;;;;;;21.44;65.54;100516.66;10610988;28;20039;-76
2022/07/25 17:41:22;;;;;;;3.03;2.40;;;;;;;21.29;66.32;100515.44;10590725;28;20047;-76
2022/07/25 17:46:24;;;;;;;2.72;2.50;;;;;;;21.22;67.08;100518.03;10609847;28;20035;-76
2022/07/25 17:51:26;;;;;;;3.30;1.90;;;;;;;21.12;67.42;100515.72;10556638;28;20035;-76
2022/07/25 17:56:29;;;;;;;2.28;1.77;;;;;;;21.07;68.04;100530.75;10583552;28;20032;-76
2022/07/25 18:01:31;;;;;;;1.95;1.83;;;;;;;20.97;69.53;100536.81;10595855;28;20047;-76
2022/07/25 18:06:33;;;;;;;3.22;2.05;;;;;;;20.82;69.82;100528.38;10597884;28;20055;-76
2022/07/25 18:11:36;;;;;;;2.60;1.95;;;;;;;20.74;70.05;100528.19;10591487;28;20143;-76
2022/07/25 18:16:40;;;;;;;3.55;2.15;;;;;;;20.67;70.92;100533.56;10596284;28;20039;-75
2022/07/25 18:21:45;;;;;;;1.65;1.52;;;;;;;20.63;71.25;100540.97;10594048;28;20122;-76
2022/07/25 18:26:47;;;;;;;3.03;2.10;;;;;;;20.72;71.12;100540.84;10597287;28;20039;-74
2022/07/25 18:31:49;;;;;;;2.65;2.15;;;;;;;20.73;71.03;100545.25;10566215;28;20043;-76
2022/07/25 18:36:52;;;;;;;2.10;1.90;;;;;;;20.62;71.02;100556.06;10591579;28;20047;-76
2022/07/25 18:41:54;;;;;;;2.05;1.90;;;;;;;20.57;72.01;100550.75;10579048;28;20046;-77
2022/07/25 18:46:57;;;;;;;3.55;2.40;;;;;;;20.48;71.53;100555.66;10591197;28;20097;-78
2022/07/25 18:51:59;;;;;;;2.00;1.75;;;;;;;20.37;72.12;100557.25;10612421;28;20524;-76
2022/07/25 18:57:02;;;;;;;2.20;2.03;;;;;;;20.27;72.57;100561.31;10610175;27;20047;-76
2022/07/25 19:02:04;;;;;;;3.65;2.28;;;;;;;20.16;72.56;100549.81;10598064;28;20052;-73
2022/07/25 19:07:07;;;;;;;2.20;2.00;;;;;;;20.07;73.22;100559.44;10598205;28;20051;-76
2022/07/25 19:12:10;;;;;;;4.85;2.60;;;;;;;19.99;74.50;100560.38;10594737;28;20563;-76
2022/07/25 19:17:12;;;;;;;5.15;3.45;;;;;;;20.01;74.25;100567.22;10600291;28;20066;-76
2022/07/25 19:22:15;;;;;;;3.97;2.15;;;;;;;20.03;74.14;100559.31;10596176;28;20039;-74
2022/07/25 19:27:22;;;;;;;4.70;2.85;;;;;;;19.97;74.57;100559.91;10556359;28;20047;-74
2022/07/25 19:32:25;;;;;;;6.40;3.92;;;;;;;19.89;74.36;100564.41;10584545;28;20084;-76
2022/07/25 19:37:28;;;;;;;5.30;3.97;;;;;;;19.83;75.02;100563.00;10586235;28;20042;-74
2022/07/25 19:42:30;;;;;;;3.33;2.50;;;;;;;19.80;74.64;100572.06;10562568;28;20040;-75
2022/07/25 19:47:32;;;;;;;2.60;2.05;;;;;;;19.80;74.92;100569.28;10554483;28;20166;-75
2022/07/25 19:52:35;;;;;;;2.65;2.10;;;;;;;19.69;75.02;100571.69;10615109;28;20054;-75
2022/07/25 19:57:38;;;;;;;2.67;2.03;;;;;;;19.63;74.93;100567.50;10543719;28;20040;-75
2022/07/25 20:02:40;;;;;;;1.85;1.55;;;;;;;19.66;74.71;100574.34;10589017;28;20051;-76
2022/07/25 20:07:42;;;;;;;3.55;2.40;;;;;;;19.83;74.38;100574.16;10603364;28;20129;-76
2022/07/25 20:12:46;;;;;;;2.58;2.17;;;;;;;19.76;74.18;100576.66;10608063;27;20436;-76
2022/07/25 20:17:48;;;;;;;2.38;1.67;;;;;;;19.77;74.16;100578.28;10598168;27;20051;-79
2022/07/25 20:22:51;;;;;;;1.70;1.60;;;;;;;19.72;73.58;100586.88;10548213;28;20063;-77
2022/07/25 20:27:53;;;;;;;2.63;1.95;;;;;;;19.76;74.29;100582.25;10596806;28;20043;-77
2022/07/25 20:32:57;;;;;;;1.85;1.60;;;;;;;19.65;74.90;100589.41;10613158;28;20048;-77
2022/07/25 20:38:00;;;;;;;2.10;1.90;;;;;;;19.71;74.20;100580.50;10573274;28;20040;-76
2022/07/25 20:43:02;;;;;;;1.95;1.45;;;;;;;19.76;73.67;100580.28;10573856;28;20044;-77
2022/07/25 20:48:05;;;;;;;1.42;1.33;;;;;;;19.73;74.14;100585.72;10588011;28;20408;-76
2022/07/25 20:53:08;;;;;;;2.97;1.73;;;;;;;19.86;73.97;100588.19;10578326;28;20048;-77
2022/07/25 20:58:10;;;;;;;2.00;1.50;;;;;;;19.84;72.92;100586.91;10600360;28;20427;-76
2022/07/25 21:03:12;;;;;;;1.67;1.27;;;;;;;19.89;73.12;100583.91;10598046;28;20059;-77
2022/07/25 21:08:16;;;;;;;2.00;1.67;;;;;;;19.96;72.19;100586.09;10586465;28;20059;-77
2022/07/25 21:13:18;;;;;;;1.58;1.40;;;;;;;19.81;72.71;100584.81;10597663;28;20097;-75
2022/07/25 21:18:20;;;;;;;2.05;1.45;;;;;;;19.69;72.78;100587.56;10591511;28;20051;-79
2022/07/25 21:23:25;;;;;;;1.50;1.40;;;;;;;19.66;73.33;100577.13;10599281;28;20050;-78
2022/07/25 21:28:27;;;;;;;1.55;1.05;;;;;;;19.69;73.15;100577.25;10576931;28;20047;-78
2022/07/25 21:33:30;;;;;;;1.70;1.30;;;;;;;19.79;72.93;100576.81;10555855;28;20036;-78
2022/07/25 21:38:32;;;;;;;1.45;1.33;;;;;;;19.95;72.58;100567.78;10602758;28;20047;-78
2022/07/25 21:43:34;;;;;;;1.73;1.48;;;;;;;19.93;72.22;100573.69;10578804;28;20040;-78
2022/07/25 21:53:58;;;;;;;1.45;1.30;;;;;;;20.02;71.95;100584.75;10614518;28;20412;-77
2022/07/25 21:59:00;;;;;;;1.40;1.30;;;;;;;19.87;72.20;100581.47;10580713;28;20032;-77
2022/07/25 22:04:03;;;;;;;1.25;1.15;;;;;;;19.95;71.48;100581.69;10591280;28;20048;-77
2022/07/25 22:09:06;;;;;;;2.75;1.42;;;;;;;20.00;70.98;100576.72;10615645;28;20039;-77
2022/07/25 22:14:08;;;;;;;1.30;1.20;;;;;;;19.98;71.85;100581.03;10616838;28;20055;-77
2022/07/25 22:19:10;;;;;;;2.70;1.65;;;;;;;19.83;72.27;100579.72;10618239;28;20040;-76
2022/07/25 22:24:12;;;;;;;3.47;1.52;;;;;;;19.72;72.59;100572.97;10600264;28;20051;-77
2022/07/25 22:29:14;;;;;;;2.55;1.45;;;;;;;19.73;72.52;100575.41;10618950;28;20047;-77
2022/07/25 22:34:17;;;;;;;2.63;1.45;;;;;;;19.84;71.88;100579.38;10614494;28;20043;-77
2022/07/25 22:39:19;;;;;;;1.85;1.40;;;;;;;19.90;72.16;100574.38;10599188;28;20052;-77
2022/07/25 22:44:22;;;;;;;2.58;1.60;;;;;;;19.92;71.33;100569.28;10617054;28;20055;-77
2022/07/25 22:49:24;;;;;;;3.80;1.35;;;;;;;19.98;71.52;100567.91;10599651;28;20070;-77
2022/07/25 22:54:27;;;;;;;3.25;1.35;;;;;;;19.94;70.90;100566.97;10577406;28;20425;-77
2022/07/25 22:59:29;;;;;;;1.55;1.25;;;;;;;19.88;71.15;100562.78;10557566;28;20040;-77
2022/07/25 23:04:31;;;;;;;1.40;1.25;;;;;;;19.86;70.39;100565.09;10608057;28;20044;-77
2022/07/25 23:09:36;;;;;;;2.25;1.50;;;;;;;19.79;71.16;100567.66;10616666;28;21885;-77
2022/07/25 23:14:39;;;;;;;1.63;1.30;;;;;;;19.82;71.46;100569.75;10617566;28;20035;-77
2022/07/25 23:19:44;;;;;;;1.80;1.60;;;;;;;19.77;71.85;100565.19;10614809;28;20050;-77
2022/07/25 23:24:46;;;;;;;1.58;1.45;;;;;;;19.69;72.08;100571.69;10616676;28;20390;-77
2022/07/25 23:29:49;;;;;;;1.80;1.65;;;;;;;19.46;73.78;100574.03;10615271;28;20043;-77
2022/07/25 23:34:51;;;;;;;2.25;1.50;;;;;;;19.44;73.84;100575.53;10597357;28;20049;-77
2022/07/25 23:39:53;;;;;;;2.42;1.70;;;;;;;19.35;74.55;100580.34;10614750;28;20047;-77
2022/07/25 23:44:56;;;;;;;2.67;1.80;;;;;;;19.41;74.13;100578.97;10615221;28;20051;-77
2022/07/25 23:49:58;;;;;;;1.83;1.58;;;;;;;19.36;74.21;100573.63;10615763;28;20031;-77
2022/07/25 23:55:01;;;;;;;3.22;1.95;;;;;;;19.36;74.79;100581.97;10614719;28;20054;-77
